createdAt,value
2023-01-17T00:02:12.211Z,71.83
2023-01-17T00:17:12.004Z,72.80
2023-01-17T00:32:11.851Z,72.97
2023-01-17T00:47:11.700Z,73.94
2023-01-17T01:02:11.609Z,74.80
2023-01-17T01:17:11.373Z,75.22
2023-01-17T01:32:11.256Z,76.61
2023-01-17T01:47:11.072Z,76.26
2023-01-17T02:02:10.937Z,76.19
2023-01-17T02:17:10.781Z,76.72
2023-01-17T02:32:10.641Z,76.26
2023-01-17T02:47:10.579Z,75.64
2023-01-17T03:02:10.488Z,75.95
2023-01-17T03:17:10.177Z,75.64
2023-01-17T03:32:10.023Z,78.30
2023-01-17T03:47:09.967Z,77.99
2023-01-17T04:02:09.864Z,77.58
2023-01-17T04:17:09.521Z,78.47
2023-01-17T04:32:09.386Z,78.16
2023-01-17T04:47:09.283Z,79.17
2023-01-17T05:02:09.109Z,79.24
2023-01-17T05:17:08.871Z,84.42
2023-01-17T05:32:08.716Z,87.40
2023-01-17T05:47:08.569Z,86.64
2023-01-17T06:02:08.406Z,83.38
2023-01-17T06:17:08.258Z,82.76
2023-01-17T06:32:08.091Z,83.53
2023-01-17T06:47:07.942Z,83.42
2023-01-17T07:02:07.760Z,82.90
2023-01-17T07:17:07.601Z,82.80
2023-01-17T07:32:07.446Z,82.39
2023-01-17T07:47:07.260Z,82.18
2023-01-17T08:02:07.157Z,82.39
2023-01-17T08:17:06.955Z,81.87
2023-01-17T08:32:06.808Z,79.55
2023-01-17T08:47:06.706Z,78.27
2023-01-17T09:02:06.587Z,77.44
2023-01-17T09:17:06.328Z,76.09
2023-01-17T09:32:06.183Z,74.19
2023-01-17T09:47:06.151Z,74.60
2023-01-17T10:02:06.038Z,75.98
2023-01-17T10:17:05.720Z,78.47
2023-01-17T10:32:05.569Z,76.81
2023-01-17T10:47:05.402Z,78.30
2023-01-17T11:02:05.311Z,77.30
2023-01-17T11:17:05.106Z,79.83
2023-01-17T11:32:04.945Z,80.24
2023-01-17T11:47:04.794Z,91.72
2023-01-17T12:02:04.636Z,90.72
2023-01-17T12:17:04.448Z,92.03
2023-01-17T12:32:04.294Z,90.75
2023-01-17T12:47:04.176Z,88.31
2023-01-17T13:02:04.049Z,84.29
2023-01-17T13:17:03.816Z,79.72
2023-01-17T13:32:03.661Z,77.02
2023-01-17T13:47:03.521Z,75.57
2023-01-17T14:02:03.372Z,76.64
2023-01-17T14:17:03.200Z,74.46
2023-01-17T14:32:03.057Z,77.26
2023-01-17T14:47:02.920Z,78.75
2023-01-17T15:02:08.047Z,78.86
2023-01-17T15:17:02.617Z,78.75
2023-01-17T15:32:02.434Z,84.23
2023-01-17T15:47:02.266Z,87.48
2023-01-17T16:02:02.160Z,91.91
2023-01-17T16:17:01.998Z,93.46
2023-01-17T16:32:01.788Z,93.96
2023-01-17T16:47:01.641Z,95.26
2023-01-17T17:02:01.568Z,94.78
2023-01-17T17:17:01.352Z,92.73
2023-01-17T17:32:01.196Z,93.13
2023-01-17T17:47:01.029Z,96.47
2023-01-17T18:02:01.012Z,96.36
2023-01-17T18:17:00.739Z,96.93
2023-01-17T18:32:03.868Z,97.35
2023-01-17T18:47:00.706Z,96.55
2023-01-17T19:02:00.399Z,97.75
2023-01-17T19:17:00.203Z,98.74
2023-01-17T19:32:00.948Z,98.95
2023-01-17T19:47:00.183Z,98.62
2023-01-17T20:01:59.892Z,98.10
2023-01-17T20:16:59.533Z,96.98
2023-01-17T20:31:59.374Z,97.09
2023-01-17T20:46:59.167Z,98.56
2023-01-17T21:01:59.240Z,97.24
2023-01-17T21:16:58.948Z,99.02
2023-01-17T21:31:58.723Z,97.87
2023-01-17T21:46:58.633Z,98.33
2023-01-17T22:01:58.593Z,97.75
2023-01-17T22:16:58.273Z,96.48
2023-01-17T22:31:58.118Z,97.47
2023-01-17T22:46:57.964Z,98.53
2023-01-17T23:01:57.816Z,98.95
2023-01-17T23:16:57.671Z,98.00
2023-01-17T23:31:57.522Z,97.73
2023-01-17T23:46:57.365Z,96.83
